createdAt,value
2022-12-16T21:10:43.857Z,65.26
2022-12-16T21:11:43.808Z,66.03
2022-12-16T21:13:48.311Z,66.83
2022-12-16T21:14:47.736Z,67.31
2022-12-16T21:16:51.706Z,66.89
2022-12-16T21:17:51.678Z,67.47
2022-12-16T21:19:56.113Z,67.41
2022-12-16T21:20:55.926Z,67.16
2022-12-16T21:22:54.166Z,65.36
2022-12-16T21:24:01.263Z,63.99
2022-12-16T21:24:56.287Z,62.77
2022-12-16T21:25:54.413Z,61.50
2022-12-16T21:26:54.201Z,59.91
2022-12-16T21:27:54.400Z,58.54
2022-12-16T21:28:54.093Z,57.07
2022-12-16T21:29:54.050Z,56.16
2022-12-16T21:30:54.029Z,54.99
2022-12-16T21:31:54.017Z,53.91
2022-12-16T21:32:53.998Z,52.73
2022-12-16T21:33:54.005Z,52.20
2022-12-16T21:34:53.966Z,51.89
2022-12-16T21:35:53.951Z,51.49
2022-12-16T21:36:53.930Z,51.56
2022-12-16T21:37:53.932Z,51.82
2022-12-16T21:38:56.122Z,51.25
2022-12-16T21:39:53.948Z,51.31
2022-12-16T21:40:53.876Z,51.57
2022-12-16T21:41:53.844Z,51.93
2022-12-16T21:42:56.363Z,52.12
2022-12-16T21:43:53.810Z,52.37
2022-12-16T21:44:53.786Z,52.56
2022-12-16T21:45:53.791Z,53.02
2022-12-16T21:46:53.744Z,53.11
2022-12-16T21:47:53.726Z,53.18
2022-12-16T21:48:53.702Z,54.03
2022-12-16T21:49:53.697Z,53.81
2022-12-16T21:50:53.660Z,54.28
2022-12-16T21:51:53.653Z,54.47
2022-12-16T21:52:53.638Z,55.43
2022-12-16T21:53:53.679Z,55.49
2022-12-16T21:54:53.576Z,55.87
2022-12-16T21:55:53.605Z,55.96
2022-12-16T21:56:53.535Z,55.94
2022-12-16T21:57:53.636Z,56.22
2022-12-16T21:58:53.513Z,56.60
2022-12-16T21:59:53.469Z,56.67
2022-12-16T22:00:57.433Z,56.57
2022-12-16T22:01:53.511Z,56.95
2022-12-16T22:02:53.399Z,57.42
2022-12-16T22:03:53.751Z,57.23
2022-12-16T22:04:53.491Z,57.80
2022-12-16T22:05:53.333Z,58.06
2022-12-16T22:06:53.318Z,58.34
2022-12-16T22:07:53.285Z,58.44
2022-12-16T22:08:53.265Z,58.53
2022-12-16T22:09:53.237Z,58.72
2022-12-16T22:10:53.220Z,58.53
2022-12-16T22:11:53.189Z,58.62
2022-12-16T22:12:56.136Z,58.15
2022-12-16T22:13:53.147Z,58.40
2022-12-16T22:14:53.125Z,58.97
2022-12-16T22:15:53.095Z,58.69
2022-12-16T22:16:53.622Z,58.78
2022-12-16T22:17:58.082Z,58.97
2022-12-16T22:18:53.032Z,59.44
2022-12-16T22:19:53.001Z,59.35
2022-12-16T22:20:54.829Z,59.44
2022-12-16T22:21:52.982Z,59.44
2022-12-16T22:22:52.926Z,59.54
2022-12-16T22:23:52.903Z,59.70
2022-12-16T22:24:52.882Z,59.60
2022-12-16T22:25:52.855Z,59.73
2022-12-16T22:26:53.399Z,59.60
2022-12-16T22:27:52.807Z,59.70
2022-12-16T22:28:52.778Z,59.60
2022-12-16T22:29:52.764Z,59.70
2022-12-16T22:30:52.739Z,59.70
2022-12-16T22:31:52.715Z,59.70
2022-12-16T22:32:52.684Z,59.60
2022-12-16T22:33:53.292Z,59.60
2022-12-16T22:34:52.668Z,59.70
2022-12-16T22:35:52.610Z,59.70
2022-12-16T22:36:52.586Z,59.70
2022-12-16T22:37:52.566Z,59.70
2022-12-16T22:38:52.546Z,59.60
2022-12-16T22:39:52.514Z,59.60
2022-12-16T22:40:52.482Z,59.70
2022-12-16T22:41:53.195Z,59.70
2022-12-16T22:42:52.440Z,59.70
2022-12-16T22:43:52.424Z,59.60
2022-12-16T22:44:52.387Z,59.51
2022-12-16T22:45:52.499Z,59.60
2022-12-16T22:46:52.340Z,59.51
2022-12-16T22:47:52.313Z,59.89
2022-12-16T22:48:52.290Z,59.70
2022-12-16T22:49:52.262Z,59.79
2022-12-16T22:50:52.238Z,59.22
2022-12-16T22:51:52.212Z,59.32
2022-12-16T22:52:52.194Z,59.41
2022-12-16T22:53:52.168Z,59.41
2022-12-16T22:54:52.138Z,59.13
2022-12-16T22:55:52.134Z,59.41
2022-12-16T22:56:52.088Z,59.41
2022-12-16T22:57:53.525Z,59.13
2022-12-16T22:58:52.040Z,58.94
2022-12-16T22:59:52.016Z,58.37
2022-12-16T23:00:52.071Z,58.75
2022-12-16T23:01:52.005Z,58.75
2022-12-16T23:02:51.950Z,58.84
2022-12-16T23:03:51.990Z,58.56
2022-12-16T23:04:51.961Z,58.65
2022-12-16T23:05:51.861Z,58.56
2022-12-16T23:06:51.912Z,58.94
2022-12-16T23:07:51.815Z,58.75
2022-12-16T23:08:51.786Z,58.84
2022-12-16T23:09:53.310Z,58.75
2022-12-16T23:10:51.738Z,58.56
2022-12-16T23:11:51.710Z,59.22
2022-12-16T23:12:51.686Z,58.18
2022-12-16T23:13:51.663Z,58.65
2022-12-16T23:14:51.643Z,58.56
2022-12-16T23:15:51.979Z,58.56
2022-12-16T23:16:51.586Z,58.65
2022-12-16T23:17:51.565Z,58.37
2022-12-16T23:18:52.088Z,58.94
2022-12-16T23:19:51.508Z,58.65
2022-12-16T23:20:51.486Z,58.65
2022-12-16T23:21:51.462Z,58.47
2022-12-16T23:22:51.434Z,58.56
2022-12-16T23:23:51.412Z,58.37
2022-12-16T23:24:51.387Z,58.56
2022-12-16T23:25:51.359Z,58.56
2022-12-16T23:26:51.336Z,58.28
2022-12-16T23:27:51.308Z,58.47
2022-12-16T23:28:51.389Z,58.47
2022-12-16T23:29:51.259Z,58.37
2022-12-16T23:30:51.283Z,58.37
2022-12-16T23:31:51.968Z,58.53
2022-12-16T23:32:51.184Z,58.63
2022-12-16T23:33:51.161Z,58.37
2022-12-16T23:34:51.137Z,58.56
2022-12-16T23:35:51.107Z,58.75
2022-12-16T23:36:51.083Z,58.47
2022-12-16T23:37:51.059Z,58.44
2022-12-16T23:38:51.042Z,58.47
2022-12-16T23:39:51.006Z,58.06
2022-12-16T23:40:50.986Z,58.37
2022-12-16T23:41:50.956Z,58.37
2022-12-16T23:42:51.312Z,58.37
2022-12-16T23:43:50.913Z,58.28
2022-12-16T23:44:56.295Z,58.18
2022-12-16T23:45:50.852Z,58.25
2022-12-16T23:46:50.891Z,58.06
2022-12-16T23:47:50.802Z,57.90
2022-12-16T23:48:50.779Z,58.15
2022-12-16T23:49:51.980Z,58.15
2022-12-16T23:50:50.736Z,58.09
2022-12-16T23:51:50.702Z,57.90
2022-12-16T23:52:50.678Z,57.90
2022-12-16T23:53:50.660Z,58.09
2022-12-16T23:54:50.631Z,58.00
2022-12-16T23:55:50.604Z,58.00
2022-12-16T23:56:50.577Z,57.78
2022-12-16T23:57:50.551Z,57.81
2022-12-16T23:58:50.532Z,57.97
2022-12-16T23:59:50.499Z,57.81
